createdAt,value
2019-04-25T00:00:13.279Z,43.20
2019-04-25T00:02:46.519Z,43.20
2019-04-25T00:05:18.411Z,43.40
2019-04-25T00:07:49.444Z,43.50
2019-04-25T00:10:22.036Z,43.60
2019-04-25T00:12:53.386Z,43.90
2019-04-25T00:15:24.636Z,44.00
2019-04-25T00:17:56.092Z,44.30
2019-04-25T00:20:28.869Z,44.50
2019-04-25T00:23:11.765Z,44.90
2019-04-25T00:26:14.349Z,45.00
2019-04-25T00:28:46.787Z,45.20
2019-04-25T00:31:18.159Z,45.60
2019-04-25T00:33:49.584Z,45.90
2019-04-25T00:36:21.796Z,46.10
2019-04-25T00:38:53.308Z,46.20
2019-04-25T00:41:27.659Z,46.30
2019-04-25T00:43:58.841Z,46.50
2019-04-25T00:46:29.943Z,46.60
2019-04-25T00:49:02.516Z,46.50
2019-04-25T00:51:33.620Z,46.80
2019-04-25T00:54:04.852Z,47.00
2019-04-25T00:56:36.017Z,47.00
2019-04-25T00:59:24.767Z,47.30
2019-04-25T01:02:11.813Z,47.40
2019-04-25T01:04:43.893Z,47.90
2019-04-25T01:07:15.641Z,48.00
2019-04-25T01:09:47.696Z,48.20
2019-04-25T01:12:21.605Z,48.30
2019-04-25T01:14:53.661Z,48.50
2019-04-25T01:17:25.189Z,48.80
2019-04-25T01:19:57.995Z,49.10
2019-04-25T01:22:28.997Z,49.20
2019-04-25T01:25:00.584Z,49.50
2019-04-25T01:27:33.215Z,49.60
2019-04-25T01:30:06.134Z,49.70
2019-04-25T01:32:38.737Z,49.80
2019-04-25T01:35:20.373Z,49.90
2019-04-25T01:38:08.576Z,50.00
2019-04-25T01:40:55.681Z,50.20
2019-04-25T01:43:43.682Z,50.30
2019-04-25T01:46:15.491Z,50.40
2019-04-25T01:48:48.567Z,50.50
2019-04-25T01:51:20.376Z,50.60
2019-04-25T01:53:52.597Z,50.80
2019-04-25T01:56:24.928Z,51.00
2019-04-25T01:58:56.143Z,51.10
2019-04-25T02:01:27.201Z,51.00
2019-04-25T02:03:59.047Z,50.90
2019-04-25T02:06:30.257Z,51.00
2019-04-25T02:09:03.832Z,51.20
2019-04-25T02:11:50.928Z,51.10
2019-04-25T02:14:23.844Z,51.10
2019-04-25T02:16:56.279Z,51.10
2019-04-25T02:19:28.451Z,51.30
2019-04-25T02:21:59.887Z,51.50
2019-04-25T02:24:33.756Z,51.50
2019-04-25T02:27:05.066Z,51.70
2019-04-25T02:29:36.158Z,51.90
2019-04-25T02:32:09.276Z,52.00
2019-04-25T02:34:40.402Z,52.00
2019-04-25T02:37:14.628Z,52.10
2019-04-25T02:39:45.950Z,52.20
2019-04-25T02:42:17.337Z,52.30
2019-04-25T02:45:00.157Z,52.50
2019-04-25T02:47:48.432Z,52.60
2019-04-25T02:50:34.356Z,52.70
2019-04-25T02:53:37.366Z,52.60
2019-04-25T02:56:26.183Z,52.80
2019-04-25T02:58:41.185Z,52.90
2019-04-25T03:01:21.357Z,52.90
2019-04-25T03:03:46.919Z,53.00
2019-04-25T03:06:18.234Z,53.00
2019-04-25T03:08:49.745Z,52.80
2019-04-25T03:11:21.209Z,52.80
2019-04-25T03:13:54.766Z,52.80
2019-04-25T03:16:26.063Z,53.00
2019-04-25T03:19:09.935Z,52.80
2019-04-25T03:21:44.990Z,53.10
2019-04-25T03:24:16.806Z,53.10
2019-04-25T03:26:48.602Z,53.40
2019-04-25T03:29:20.240Z,53.30
2019-04-25T03:31:52.121Z,53.40
2019-04-25T03:34:25.375Z,53.40
2019-04-25T03:36:57.324Z,53.60
2019-04-25T03:39:29.244Z,53.30
2019-04-25T03:42:01.354Z,53.90
2019-04-25T03:44:34.563Z,53.90
2019-04-25T03:47:07.754Z,54.00
2019-04-25T03:49:40.431Z,54.00
2019-04-25T03:52:13.772Z,54.20
2019-04-25T03:54:45.351Z,54.30
2019-04-25T03:57:17.031Z,54.60
2019-04-25T03:59:48.181Z,54.70
2019-04-25T04:02:19.843Z,55.10
2019-04-25T04:04:51.416Z,55.30
2019-04-25T04:07:26.247Z,55.30
2019-04-25T04:09:57.500Z,55.40
2019-04-25T04:12:28.690Z,55.20
2019-04-25T04:14:59.927Z,55.20
2019-04-25T04:17:55.147Z,55.40
2019-04-25T04:20:45.650Z,55.60
2019-04-25T04:23:35.964Z,55.40
2019-04-25T04:26:07.709Z,55.10
2019-04-25T04:28:38.998Z,55.20
2019-04-25T04:31:10.271Z,55.20
2019-04-25T04:33:43.042Z,55.40
2019-04-25T04:36:15.034Z,55.40
2019-04-25T04:38:47.543Z,55.30
2019-04-25T04:41:19.242Z,55.30
2019-04-25T04:43:50.887Z,55.20
2019-04-25T04:46:24.023Z,54.80
2019-04-25T04:48:56.048Z,54.60
2019-04-25T04:51:27.712Z,54.40
2019-04-25T04:53:58.921Z,54.50
2019-04-25T04:56:30.931Z,54.10
2019-04-25T04:59:03.649Z,53.40
2019-04-25T05:01:37.758Z,52.90
2019-04-25T05:04:19.105Z,52.70
2019-04-25T05:07:21.746Z,52.50
2019-04-25T05:09:53.893Z,52.30
2019-04-25T05:12:25.247Z,52.00
2019-04-25T05:14:56.401Z,51.90
2019-04-25T05:17:29.141Z,52.00
2019-04-25T05:20:01.293Z,51.80
2019-04-25T05:22:33.377Z,51.50
2019-04-25T05:25:04.791Z,51.30
2019-04-25T05:27:50.786Z,51.10
2019-04-25T05:30:14.586Z,50.70
2019-04-25T05:32:45.788Z,50.30
2019-04-25T05:35:17.818Z,50.80
2019-04-25T05:37:49.571Z,50.10
2019-04-25T05:40:22.099Z,49.80
2019-04-25T05:43:08.453Z,49.30
2019-04-25T05:45:40.211Z,49.10
2019-04-25T05:48:11.881Z,49.00
2019-04-25T05:50:43.821Z,48.70
2019-04-25T05:53:16.351Z,48.60
2019-04-25T05:55:48.087Z,48.80
2019-04-25T05:58:20.393Z,48.20
2019-04-25T06:00:54.256Z,47.90
2019-04-25T06:03:27.529Z,47.60
2019-04-25T06:05:59.526Z,47.70
2019-04-25T06:08:34.143Z,47.60
2019-04-25T06:11:23.918Z,47.10
2019-04-25T06:14:05.130Z,47.00
2019-04-25T06:16:38.619Z,46.70
2019-04-25T06:19:38.895Z,46.10
2019-04-25T06:22:15.137Z,46.00
2019-04-25T06:24:54.235Z,46.10
2019-04-25T06:27:30.896Z,45.60
2019-04-25T06:30:25.025Z,45.70
2019-04-25T06:32:57.646Z,45.70
2019-04-25T06:35:29.675Z,45.70
2019-04-25T06:38:03.579Z,45.80
2019-04-25T06:40:35.939Z,45.90
2019-04-25T06:43:07.921Z,45.60
2019-04-25T06:46:10.280Z,45.60
2019-04-25T06:48:56.644Z,45.60
2019-04-25T06:51:46.435Z,45.00
2019-04-25T06:54:19.065Z,45.30
2019-04-25T06:56:51.310Z,44.90
2019-04-25T06:59:25.973Z,44.80
2019-04-25T07:01:56.728Z,44.70
2019-04-25T07:04:29.222Z,44.00
2019-04-25T07:07:10.522Z,43.90
2019-04-25T07:09:36.398Z,44.00
2019-04-25T07:12:08.698Z,43.40
2019-04-25T07:14:40.808Z,43.70
2019-04-25T07:17:14.288Z,43.40
2019-04-25T07:19:46.738Z,43.50
2019-04-25T07:22:18.844Z,42.70
2019-04-25T07:24:50.965Z,42.90
2019-04-25T07:27:54.558Z,42.80
2019-04-25T07:30:50.052Z,41.90
2019-04-25T07:33:26.898Z,41.90
2019-04-25T07:35:58.169Z,41.30
2019-04-25T07:38:31.133Z,40.60
2019-04-25T07:41:03.534Z,40.60
2019-04-25T07:43:36.323Z,40.00
2019-04-25T07:46:09.913Z,40.20
2019-04-25T07:48:43.702Z,39.80
2019-04-25T07:51:16.543Z,39.40
2019-04-25T07:53:48.847Z,39.30
2019-04-25T07:56:21.057Z,39.20
2019-04-25T07:58:55.889Z,39.10
2019-04-25T08:01:29.273Z,38.90
2019-04-25T08:04:03.499Z,38.80
2019-04-25T08:06:35.788Z,38.50
2019-04-25T08:09:11.300Z,38.40
2019-04-25T08:11:44.295Z,37.10
2019-04-25T08:14:24.798Z,36.20
2019-04-25T08:16:59.170Z,36.30
2019-04-25T08:19:31.168Z,35.90
2019-04-25T08:22:03.735Z,36.20
2019-04-25T08:24:39.109Z,36.10
2019-04-25T08:27:11.012Z,35.50
2019-04-25T08:29:44.853Z,35.00
2019-04-25T08:32:16.214Z,34.70
2019-04-25T08:34:47.904Z,34.60
2019-04-25T08:37:21.161Z,33.80
2019-04-25T08:39:53.891Z,33.30
2019-04-25T08:42:25.777Z,33.00
2019-04-25T08:44:57.421Z,33.30
2019-04-25T08:47:29.375Z,33.20
2019-04-25T08:50:24.620Z,32.30
2019-04-25T08:52:44.817Z,32.00
2019-04-25T08:55:48.685Z,31.70
2019-04-25T08:58:43.638Z,31.00
2019-04-25T09:01:24.406Z,30.40
2019-04-25T09:04:05.126Z,30.00
2019-04-25T09:06:37.563Z,30.40
2019-04-25T09:09:10.795Z,30.70
2019-04-25T09:11:44.655Z,31.00
2019-04-25T09:14:16.405Z,29.80
2019-04-25T09:16:48.485Z,30.00
2019-04-25T09:19:20.853Z,30.30
2019-04-25T09:21:53.385Z,30.00
2019-04-25T09:24:25.167Z,30.10
2019-04-25T09:26:56.727Z,29.80
2019-04-25T09:29:29.076Z,28.90
2019-04-25T09:32:03.747Z,29.10
2019-04-25T09:34:36.200Z,29.30
2019-04-25T09:37:09.558Z,29.90
2019-04-25T09:40:06.446Z,29.10
2019-04-25T09:42:39.379Z,29.10
2019-04-25T09:45:30.014Z,28.90
2019-04-25T09:48:08.594Z,29.10
2019-04-25T09:50:46.483Z,29.20
2019-04-25T09:53:23.192Z,29.00
2019-04-25T09:56:20.920Z,28.40
2019-04-25T09:59:06.405Z,27.80
2019-04-25T10:01:40.140Z,27.50
2019-04-25T10:04:12.145Z,28.20
2019-04-25T10:06:45.740Z,27.40
2019-04-25T10:09:17.793Z,27.40
2019-04-25T10:11:54.515Z,27.00
2019-04-25T10:15:04.449Z,27.70
2019-04-25T10:17:37.600Z,27.30
2019-04-25T10:20:10.137Z,27.70
2019-04-25T10:22:42.696Z,27.70
2019-04-25T10:25:16.608Z,27.10
2019-04-25T10:27:49.364Z,27.20
2019-04-25T10:30:23.778Z,27.40
2019-04-25T10:32:55.172Z,27.00
2019-04-25T10:35:27.248Z,27.00
2019-04-25T10:37:59.410Z,26.70
2019-04-25T10:40:33.858Z,26.40
2019-04-25T10:43:06.625Z,26.60
2019-04-25T10:45:39.782Z,26.70
2019-04-25T10:48:13.701Z,25.40
2019-04-25T10:50:47.049Z,25.40
2019-04-25T10:53:20.760Z,25.50
2019-04-25T10:55:52.835Z,26.30
2019-04-25T10:58:25.107Z,26.30
2019-04-25T11:00:57.526Z,25.70
2019-04-25T11:03:45.542Z,25.30
2019-04-25T11:06:20.433Z,24.60
2019-04-25T11:08:55.465Z,24.40
2019-04-25T11:11:27.724Z,23.50
2019-04-25T11:14:00.464Z,23.60
2019-04-25T11:16:33.417Z,23.90
2019-04-25T11:19:08.715Z,24.50
2019-04-25T11:21:44.280Z,24.60
2019-04-25T11:24:15.850Z,24.20
2019-04-25T11:26:50.102Z,24.40
2019-04-25T11:29:21.303Z,23.20
2019-04-25T11:31:53.428Z,23.10
2019-04-25T11:34:25.902Z,23.30
2019-04-25T11:36:58.247Z,22.90
2019-04-25T11:39:46.141Z,22.40
2019-04-25T11:42:18.285Z,22.20
2019-04-25T11:44:50.520Z,22.40
2019-04-25T11:47:22.268Z,21.50
2019-04-25T11:49:55.906Z,21.00
2019-04-25T11:52:30.206Z,21.00
2019-04-25T11:55:04.086Z,21.40
2019-04-25T11:57:35.989Z,20.80
2019-04-25T12:00:21.355Z,21.00
2019-04-25T12:02:43.940Z,21.10
2019-04-25T12:05:16.096Z,20.90
2019-04-25T12:07:50.039Z,20.60
2019-04-25T12:10:24.238Z,20.70
2019-04-25T12:12:56.056Z,21.40
2019-04-25T12:15:28.278Z,20.60
2019-04-25T12:18:00.535Z,20.60
2019-04-25T12:20:34.040Z,20.50
2019-04-25T12:23:10.376Z,21.20
2019-04-25T12:25:40.337Z,21.60
2019-04-25T12:28:14.175Z,21.10
2019-04-25T12:30:47.336Z,21.30
2019-04-25T12:33:21.589Z,21.80
2019-04-25T12:35:54.136Z,21.40
2019-04-25T12:38:26.810Z,22.00
2019-04-25T12:41:00.211Z,22.70
2019-04-25T12:43:33.943Z,23.60
2019-04-25T12:46:21.523Z,24.10
2019-04-25T12:48:53.674Z,23.80
2019-04-25T12:51:25.974Z,24.20
2019-04-25T12:53:58.261Z,23.70
2019-04-25T12:56:30.053Z,23.30
2019-04-25T12:59:01.857Z,22.60
2019-04-25T13:01:33.673Z,23.00
2019-04-25T13:04:06.018Z,23.90
2019-04-25T13:06:39.577Z,23.60
2019-04-25T13:09:14.239Z,23.90
2019-04-25T13:11:46.199Z,23.90
2019-04-25T13:14:20.116Z,23.50
2019-04-25T13:16:52.165Z,23.00
2019-04-25T13:19:26.428Z,23.60
2019-04-25T13:22:00.989Z,24.00
2019-04-25T13:24:34.475Z,24.00
2019-04-25T13:27:14.202Z,24.70
2019-04-25T13:30:06.796Z,25.30
2019-04-25T13:33:17.077Z,25.40
2019-04-25T13:35:56.208Z,25.20
2019-04-25T13:38:28.476Z,25.20
2019-04-25T13:41:01.610Z,25.30
2019-04-25T13:43:33.964Z,25.40
2019-04-25T13:46:07.409Z,25.30
2019-04-25T13:48:40.478Z,25.20
2019-04-25T13:51:14.151Z,24.10
2019-04-25T13:53:46.281Z,23.20
2019-04-25T13:56:18.904Z,22.50
2019-04-25T13:58:50.688Z,21.40
2019-04-25T14:01:23.031Z,21.50
2019-04-25T14:03:55.529Z,21.10
2019-04-25T14:06:27.052Z,21.10
2019-04-25T14:08:58.858Z,20.60
2019-04-25T14:11:32.709Z,20.90
2019-04-25T14:14:04.774Z,20.80
2019-04-25T14:16:54.606Z,21.00
2019-04-25T14:19:50.365Z,21.70
2019-04-25T14:22:22.482Z,22.40
2019-04-25T14:24:55.172Z,22.00
2019-04-25T14:27:28.029Z,20.90
2019-04-25T14:30:00.270Z,20.60
2019-04-25T14:32:33.923Z,20.10
2019-04-25T14:35:06.033Z,20.90
2019-04-25T14:37:39.690Z,21.00
2019-04-25T14:40:11.673Z,20.60
2019-04-25T14:42:43.240Z,20.40
2019-04-25T14:45:44.397Z,19.90
2019-04-25T14:48:18.853Z,19.10
2019-04-25T14:50:51.052Z,19.60
2019-04-25T14:53:24.153Z,19.60
2019-04-25T14:56:17.753Z,20.50
2019-04-25T14:58:49.819Z,21.50
2019-04-25T15:01:25.975Z,22.30
2019-04-25T15:03:57.860Z,23.40
2019-04-25T15:06:32.636Z,23.10
2019-04-25T15:09:05.697Z,22.80
2019-04-25T15:11:38.509Z,22.50
2019-04-25T15:14:11.085Z,22.10
2019-04-25T15:16:43.812Z,21.90
2019-04-25T15:19:17.535Z,22.10
2019-04-25T15:21:49.435Z,22.50
2019-04-25T15:24:20.947Z,23.10
2019-04-25T15:26:54.649Z,23.40
2019-04-25T15:30:00.197Z,22.80
2019-04-25T15:32:35.181Z,22.80
2019-04-25T15:35:08.414Z,23.10
2019-04-25T15:37:48.953Z,22.90
2019-04-25T15:40:35.473Z,23.00
2019-04-25T15:43:26.217Z,23.00
2019-04-25T15:46:27.641Z,23.00
2019-04-25T15:49:00.828Z,22.90
2019-04-25T15:51:42.085Z,23.60
2019-04-25T15:54:15.670Z,23.50
2019-04-25T15:56:47.110Z,23.50
2019-04-25T15:59:18.843Z,23.60
2019-04-25T16:01:50.391Z,23.70
2019-04-25T16:04:22.253Z,23.90
2019-04-25T16:06:53.812Z,24.10
2019-04-25T16:09:29.753Z,24.40
2019-04-25T16:12:01.328Z,25.00
2019-04-25T16:14:33.417Z,25.50
2019-04-25T16:17:04.973Z,25.50
2019-04-25T16:19:36.838Z,25.30
2019-04-25T16:22:08.288Z,25.20
2019-04-25T16:24:39.773Z,24.60
2019-04-25T16:27:11.977Z,24.20
2019-04-25T16:29:43.365Z,24.10
2019-04-25T16:32:20.839Z,24.40
2019-04-25T16:34:52.879Z,24.50
2019-04-25T16:37:26.025Z,24.70
2019-04-25T16:39:57.373Z,24.70
2019-04-25T16:42:30.345Z,25.00
2019-04-25T16:45:09.071Z,25.30
2019-04-25T16:47:41.814Z,25.30
2019-04-25T16:50:17.615Z,25.10
2019-04-25T16:52:51.458Z,25.20
2019-04-25T16:55:23.877Z,25.50
2019-04-25T16:57:55.711Z,25.70
2019-04-25T17:00:51.252Z,26.00
2019-04-25T17:03:24.256Z,26.20
2019-04-25T17:05:55.755Z,26.80
2019-04-25T17:08:27.576Z,27.40
2019-04-25T17:11:01.036Z,27.70
2019-04-25T17:13:34.277Z,27.80
2019-04-25T17:16:23.028Z,28.20
2019-04-25T17:18:58.866Z,28.60
2019-04-25T17:21:31.187Z,29.10
2019-04-25T17:24:02.987Z,29.30
2019-04-25T17:26:34.855Z,29.80
2019-04-25T17:29:09.860Z,30.00
2019-04-25T17:31:54.774Z,30.00
2019-04-25T17:34:48.236Z,30.50
2019-04-25T17:37:23.508Z,30.70
2019-04-25T17:39:57.338Z,31.00
2019-04-25T17:42:29.142Z,31.30
2019-04-25T17:45:00.912Z,31.40
2019-04-25T17:47:34.608Z,31.70
2019-04-25T17:50:05.924Z,31.90
2019-04-25T17:52:37.042Z,32.50
2019-04-25T17:55:08.511Z,32.80
2019-04-25T17:57:40.195Z,33.00
2019-04-25T18:00:18.785Z,33.40
2019-04-25T18:02:58.655Z,33.70
2019-04-25T18:05:24.335Z,34.10
2019-04-25T18:07:55.646Z,34.40
2019-04-25T18:10:27.445Z,34.70
2019-04-25T18:12:58.790Z,35.00
2019-04-25T18:15:39.649Z,35.30
2019-04-25T18:18:20.065Z,35.70
2019-04-25T18:20:51.971Z,36.00
2019-04-25T18:23:51.860Z,36.40
2019-04-25T18:26:35.365Z,36.90
2019-04-25T18:29:10.370Z,37.30
2019-04-25T18:31:41.797Z,37.80
2019-04-25T18:34:18.959Z,38.50
2019-04-25T18:37:00.357Z,39.20
2019-04-25T18:39:39.828Z,39.30
2019-04-25T18:42:37.850Z,40.30
2019-04-25T18:45:12.966Z,40.20
2019-04-25T18:47:44.592Z,40.80
2019-04-25T18:50:18.363Z,41.10
2019-04-25T18:53:26.842Z,41.30
2019-04-25T18:56:10.467Z,41.50
2019-04-25T18:59:00.686Z,41.50
2019-04-25T19:01:50.793Z,41.40
2019-04-25T19:04:41.769Z,41.90
2019-04-25T19:07:22.512Z,42.90
2019-04-25T19:09:47.103Z,42.80
2019-04-25T19:12:19.370Z,43.70
2019-04-25T19:14:51.733Z,43.70
2019-04-25T19:17:23.794Z,43.60
2019-04-25T19:19:55.516Z,44.00
2019-04-25T19:22:27.298Z,43.90
2019-04-25T19:24:58.976Z,44.50
2019-04-25T19:27:31.100Z,44.40
2019-04-25T19:30:03.643Z,44.80
2019-04-25T19:32:36.433Z,45.00
2019-04-25T19:35:08.189Z,45.40
2019-04-25T19:37:40.561Z,45.70
2019-04-25T19:40:42.325Z,46.60
2019-04-25T19:43:22.022Z,46.50
2019-04-25T19:45:53.872Z,46.60
2019-04-25T19:48:25.967Z,46.70
2019-04-25T19:50:57.774Z,46.80
2019-04-25T19:53:29.447Z,47.00
2019-04-25T19:56:02.695Z,47.30
2019-04-25T19:58:34.441Z,47.60
2019-04-25T20:01:07.690Z,48.00
2019-04-25T20:03:53.559Z,47.60
2019-04-25T20:06:23.592Z,47.90
2019-04-25T20:09:14.075Z,48.30
2019-04-25T20:11:49.385Z,48.00
2019-04-25T20:14:21.342Z,48.80
2019-04-25T20:16:53.810Z,48.50
2019-04-25T20:19:25.477Z,48.30
2019-04-25T20:21:57.257Z,49.30
2019-04-25T20:24:29.057Z,49.40
2019-04-25T20:27:00.694Z,49.30
2019-04-25T20:29:32.544Z,49.40
2019-04-25T20:32:07.026Z,49.40
2019-04-25T20:34:38.439Z,49.30
2019-04-25T20:37:10.493Z,49.60
2019-04-25T20:39:42.281Z,49.50
2019-04-25T20:42:15.962Z,49.70
2019-04-25T20:44:51.695Z,49.70
2019-04-25T20:47:23.789Z,50.40
2019-04-25T20:49:55.363Z,50.70
2019-04-25T20:52:26.673Z,50.30
2019-04-25T20:54:57.970Z,50.70
2019-04-25T20:57:30.268Z,51.30
2019-04-25T21:00:01.541Z,52.20
2019-04-25T21:02:34.160Z,52.00
2019-04-25T21:05:05.580Z,51.90
2019-04-25T21:07:36.671Z,51.90
2019-04-25T21:10:08.090Z,51.80
2019-04-25T21:12:39.290Z,52.00
2019-04-25T21:15:28.651Z,52.50
2019-04-25T21:18:03.590Z,52.80
2019-04-25T21:20:34.948Z,52.50
2019-04-25T21:23:06.270Z,52.40
2019-04-25T21:25:37.719Z,52.50
2019-04-25T21:28:08.689Z,52.80
2019-04-25T21:33:31.663Z,52.60
2019-04-25T21:36:03.154Z,53.30
2019-04-25T21:38:35.454Z,53.40
2019-04-25T21:41:27.552Z,53.40
2019-04-25T21:44:03.373Z,53.30
2019-04-25T21:46:37.045Z,53.30
2019-04-25T21:49:09.179Z,53.90
2019-04-25T21:51:40.639Z,53.90
2019-04-25T21:54:11.842Z,54.80
2019-04-25T21:56:43.872Z,54.80
2019-04-25T21:59:16.288Z,55.40
2019-04-25T22:01:49.380Z,55.20
2019-04-25T22:04:22.415Z,55.50
2019-04-25T22:06:55.927Z,56.30
2019-04-25T22:09:30.481Z,56.20
2019-04-25T22:12:03.187Z,56.20
2019-04-25T22:14:36.283Z,55.90
2019-04-25T22:17:08.036Z,55.70
2019-04-25T22:19:40.081Z,55.70
2019-04-25T22:22:11.564Z,56.00
2019-04-25T22:24:43.275Z,56.00
2019-04-25T22:27:20.816Z,56.00
2019-04-25T22:29:58.821Z,56.10
2019-04-25T22:32:58.628Z,56.00
2019-04-25T22:35:49.762Z,55.80
2019-04-25T22:38:21.806Z,55.60
2019-04-25T22:40:53.588Z,55.50
2019-04-25T22:43:25.708Z,55.80
2019-04-25T22:45:57.301Z,56.10
2019-04-25T22:48:46.581Z,56.40
2019-04-25T22:51:17.975Z,56.70
2019-04-25T22:53:49.651Z,56.50
2019-04-25T22:56:20.882Z,56.80
2019-04-25T22:58:53.263Z,56.50
2019-04-25T23:01:35.129Z,56.70
2019-04-25T23:04:12.165Z,56.80
2019-04-25T23:06:43.775Z,56.50
2019-04-25T23:09:15.005Z,56.50
2019-04-25T23:11:46.424Z,56.30
2019-04-25T23:14:18.363Z,56.30
2019-04-25T23:16:51.117Z,56.50
2019-04-25T23:19:22.337Z,56.80
2019-04-25T23:21:53.870Z,56.50
2019-04-25T23:24:26.872Z,56.50
2019-04-25T23:27:16.727Z,56.60
2019-04-25T23:29:48.118Z,56.70
2019-04-25T23:32:19.499Z,56.70
2019-04-25T23:34:50.875Z,57.10
2019-04-25T23:37:21.967Z,57.10
2019-04-25T23:39:53.159Z,57.30
2019-04-25T23:42:24.237Z,57.50
2019-04-25T23:44:55.634Z,57.50
2019-04-25T23:47:27.976Z,57.30
2019-04-25T23:49:59.707Z,57.90
2019-04-25T23:52:30.908Z,57.70
2019-04-25T23:55:02.150Z,58.50
2019-04-25T23:57:33.697Z,58.60
